createdAt,value
2019-02-04T00:02:17.271Z,1.86
2019-02-04T00:04:47.782Z,1.82
2019-02-04T00:07:18.300Z,1.84
2019-02-04T00:09:49.113Z,1.87
2019-02-04T00:12:19.589Z,1.85
2019-02-04T00:14:50.290Z,1.87
2019-02-04T00:17:20.961Z,1.80
2019-02-04T00:19:51.370Z,1.80
2019-02-04T00:22:21.819Z,1.77
2019-02-04T00:24:52.197Z,1.76
2019-02-04T00:27:22.634Z,1.77
2019-02-04T00:29:53.006Z,1.75
2019-02-04T00:32:23.631Z,1.78
2019-02-04T00:34:54.392Z,1.75
2019-02-04T00:37:25.208Z,1.74
2019-02-04T00:39:55.977Z,1.73
2019-02-04T00:42:26.334Z,1.73
2019-02-04T00:44:57.069Z,1.74
2019-02-04T00:47:28.015Z,1.70
2019-02-04T00:49:58.674Z,1.70
2019-02-04T00:52:29.036Z,1.69
2019-02-04T00:54:59.398Z,1.67
2019-02-04T00:57:30.112Z,1.62
2019-02-04T01:00:00.750Z,1.59
2019-02-04T01:02:31.444Z,1.65
2019-02-04T01:05:01.880Z,1.73
2019-02-04T01:07:32.320Z,1.82
2019-02-04T01:10:03.023Z,1.79
2019-02-04T01:12:33.461Z,1.74
2019-02-04T01:15:04.317Z,1.76
2019-02-04T01:17:34.984Z,1.77
2019-02-04T01:20:06.571Z,1.77
2019-02-04T01:22:37.020Z,1.79
2019-02-04T01:25:08.229Z,1.73
2019-02-04T01:27:38.644Z,1.72
2019-02-04T01:30:10.504Z,1.76
2019-02-04T01:32:40.924Z,1.73
2019-02-04T01:35:11.958Z,1.71
2019-02-04T01:37:42.809Z,1.70
2019-02-04T01:40:20.053Z,1.65
2019-02-04T01:42:50.888Z,1.72
2019-02-04T01:45:21.724Z,1.64
2019-02-04T01:47:52.204Z,1.65
2019-02-04T01:50:24.147Z,1.66
2019-02-04T01:52:54.566Z,1.63
2019-02-04T01:55:24.894Z,1.60
2019-02-04T01:57:57.290Z,1.62
2019-02-04T02:00:38.116Z,1.65
2019-02-04T02:03:08.552Z,1.66
2019-02-04T02:05:39.000Z,1.64
2019-02-04T02:08:09.423Z,1.65
2019-02-04T02:10:40.166Z,1.73
2019-02-04T02:13:10.831Z,1.76
2019-02-04T02:15:41.292Z,1.73
2019-02-04T02:18:11.774Z,1.74
2019-02-04T02:20:42.837Z,1.65
2019-02-04T02:23:13.264Z,1.57
2019-02-04T02:25:43.698Z,1.53
2019-02-04T02:28:15.517Z,1.50
2019-02-04T02:30:46.342Z,1.47
2019-02-04T02:33:16.703Z,1.47
2019-02-04T02:35:47.122Z,1.41
2019-02-04T02:38:17.464Z,1.42
2019-02-04T02:40:47.990Z,1.39
2019-02-04T02:43:18.422Z,1.52
2019-02-04T02:45:48.914Z,1.50
2019-02-04T02:48:19.371Z,1.50
2019-02-04T02:50:49.618Z,1.49
2019-02-04T02:53:20.405Z,1.48
2019-02-04T02:55:50.853Z,1.54
2019-02-04T02:58:21.394Z,1.60
2019-02-04T03:00:52.074Z,1.58
2019-02-04T03:03:22.912Z,1.53
2019-02-04T03:05:54.497Z,1.52
2019-02-04T03:08:24.942Z,1.47
2019-02-04T03:10:55.364Z,1.48
2019-02-04T03:13:26.051Z,1.55
2019-02-04T03:15:56.531Z,1.53
2019-02-04T03:18:26.869Z,1.54
2019-02-04T03:20:57.481Z,1.46
2019-02-04T03:23:27.915Z,1.43
2019-02-04T03:25:58.355Z,1.40
2019-02-04T03:28:28.736Z,1.33
2019-02-04T03:30:59.169Z,1.35
2019-02-04T03:33:29.695Z,1.33
2019-02-04T03:36:00.024Z,1.32
2019-02-04T03:38:30.508Z,1.27
2019-02-04T03:41:01.209Z,1.26
2019-02-04T03:43:31.612Z,1.21
2019-02-04T03:46:02.336Z,1.15
2019-02-04T03:48:33.020Z,1.12
2019-02-04T03:51:03.471Z,1.21
2019-02-04T03:53:33.899Z,1.20
2019-02-04T03:56:04.441Z,1.23
2019-02-04T03:58:35.176Z,1.19
2019-02-04T04:01:05.638Z,1.12
2019-02-04T04:03:36.034Z,1.13
2019-02-04T04:06:06.483Z,1.01
2019-02-04T04:08:37.483Z,1.02
2019-02-04T04:11:07.906Z,0.96
2019-02-04T04:13:38.353Z,0.89
2019-02-04T04:16:08.801Z,0.86
2019-02-04T04:18:39.531Z,0.84
2019-02-04T04:21:10.259Z,0.84
2019-02-04T04:23:40.795Z,0.80
2019-02-04T04:26:11.230Z,0.73
2019-02-04T04:28:41.648Z,0.73
2019-02-04T04:31:12.117Z,0.74
2019-02-04T04:33:42.938Z,0.69
2019-02-04T04:36:13.350Z,0.66
2019-02-04T04:38:43.870Z,0.67
2019-02-04T04:41:14.405Z,0.65
2019-02-04T04:43:45.160Z,0.67
2019-02-04T04:46:16.153Z,0.64
2019-02-04T04:48:46.881Z,0.65
2019-02-04T04:51:17.575Z,0.61
2019-02-04T04:53:47.963Z,0.58
2019-02-04T04:56:18.586Z,0.61
2019-02-04T04:58:49.217Z,0.60
2019-02-04T05:01:19.908Z,0.63
2019-02-04T05:03:50.422Z,0.64
2019-02-04T05:06:20.830Z,0.63
2019-02-04T05:08:51.295Z,0.65
2019-02-04T05:11:21.721Z,0.68
2019-02-04T05:13:52.075Z,0.66
2019-02-04T05:16:22.518Z,0.69
2019-02-04T05:18:53.181Z,0.71
2019-02-04T05:21:23.600Z,0.76
2019-02-04T05:23:53.985Z,0.73
2019-02-04T05:26:24.664Z,0.69
2019-02-04T05:28:55.042Z,0.75
2019-02-04T05:31:25.486Z,0.80
2019-02-04T05:33:56.217Z,0.75
2019-02-04T05:36:26.909Z,0.76
2019-02-04T05:38:57.676Z,0.76
2019-02-04T05:41:28.113Z,0.73
2019-02-04T05:43:59.141Z,0.71
2019-02-04T05:46:29.607Z,0.71
2019-02-04T05:49:00.245Z,0.74
2019-02-04T05:51:33.523Z,0.75
2019-02-04T05:54:03.506Z,0.72
2019-02-04T05:56:34.780Z,0.78
2019-02-04T05:59:05.604Z,0.69
2019-02-04T06:01:36.023Z,0.64
2019-02-04T06:04:06.600Z,0.77
2019-02-04T06:06:37.298Z,0.73
2019-02-04T06:09:10.164Z,0.66
2019-02-04T06:11:40.596Z,0.65
2019-02-04T06:14:11.041Z,0.69
2019-02-04T06:16:41.500Z,0.64
2019-02-04T06:19:11.965Z,0.70
2019-02-04T06:21:42.602Z,0.69
2019-02-04T06:24:13.164Z,0.69
2019-02-04T06:26:43.648Z,0.69
2019-02-04T06:29:14.393Z,0.73
2019-02-04T06:31:45.198Z,0.77
2019-02-04T06:34:16.069Z,0.75
2019-02-04T06:36:46.684Z,0.73
2019-02-04T06:39:17.153Z,0.77
2019-02-04T06:41:47.657Z,0.78
2019-02-04T06:44:18.363Z,0.78
2019-02-04T06:46:48.940Z,0.80
2019-02-04T06:49:19.603Z,0.81
2019-02-04T06:51:50.138Z,0.83
2019-02-04T06:54:21.007Z,0.86
2019-02-04T06:56:51.438Z,0.86
2019-02-04T06:59:21.867Z,0.90
2019-02-04T07:01:52.763Z,0.92
2019-02-04T07:04:23.174Z,0.89
2019-02-04T07:06:53.613Z,0.96
2019-02-04T07:09:24.309Z,0.92
2019-02-04T07:11:54.707Z,0.96
2019-02-04T07:14:25.055Z,0.95
2019-02-04T07:16:55.441Z,0.95
2019-02-04T07:19:26.227Z,0.97
2019-02-04T07:21:56.559Z,0.94
2019-02-04T07:24:26.946Z,0.96
2019-02-04T07:26:57.816Z,1.00
2019-02-04T07:29:28.623Z,1.02
2019-02-04T07:31:59.113Z,1.04
2019-02-04T07:34:29.572Z,1.05
2019-02-04T07:36:59.997Z,1.09
2019-02-04T07:39:30.499Z,1.12
2019-02-04T07:42:03.957Z,1.10
2019-02-04T07:44:34.424Z,1.15
2019-02-04T07:47:04.929Z,1.21
2019-02-04T07:49:35.880Z,1.16
2019-02-04T07:52:07.143Z,1.20
2019-02-04T07:54:37.557Z,1.16
2019-02-04T07:57:08.091Z,1.14
2019-02-04T07:59:38.843Z,1.18
2019-02-04T08:02:09.588Z,1.15
2019-02-04T08:04:40.167Z,1.19
2019-02-04T08:07:10.593Z,1.23
2019-02-04T08:09:41.347Z,1.31
2019-02-04T08:12:11.789Z,1.31
2019-02-04T08:14:45.144Z,1.26
2019-02-04T08:17:14.326Z,1.39
2019-02-04T08:19:47.036Z,1.44
2019-02-04T08:22:16.862Z,1.58
2019-02-04T08:24:47.293Z,1.54
2019-02-04T08:27:17.778Z,1.64
2019-02-04T08:29:48.496Z,1.79
2019-02-04T08:32:19.211Z,1.75
2019-02-04T08:34:49.950Z,1.82
2019-02-04T08:37:20.351Z,2.06
2019-02-04T08:39:50.788Z,2.18
2019-02-04T08:42:21.278Z,1.97
2019-02-04T08:44:51.696Z,2.14
2019-02-04T08:47:23.601Z,2.20
2019-02-04T08:49:58.575Z,2.32
2019-02-04T08:52:26.530Z,2.19
2019-02-04T08:54:56.966Z,2.24
2019-02-04T08:57:27.410Z,2.32
2019-02-04T08:59:57.820Z,2.25
2019-02-04T09:02:28.606Z,2.36
2019-02-04T09:04:59.102Z,2.41
2019-02-04T09:07:29.538Z,2.29
2019-02-04T09:10:00.001Z,2.37
2019-02-04T09:12:30.588Z,2.37
2019-02-04T09:15:01.003Z,2.30
2019-02-04T09:17:32.385Z,2.55
2019-02-04T09:20:10.297Z,2.49
2019-02-04T09:22:35.931Z,2.56
2019-02-04T09:25:08.532Z,2.62
2019-02-04T09:27:38.938Z,2.56
2019-02-04T09:30:16.497Z,2.53
2019-02-04T09:32:47.299Z,2.71
2019-02-04T09:35:19.388Z,2.72
2019-02-04T09:37:50.236Z,2.58
2019-02-04T09:40:33.596Z,2.71
2019-02-04T09:43:04.548Z,2.84
2019-02-04T09:45:34.983Z,2.92
2019-02-04T09:48:07.233Z,2.87
2019-02-04T09:50:38.511Z,2.88
2019-02-04T09:53:09.363Z,2.93
2019-02-04T09:55:40.365Z,2.96
2019-02-04T09:58:10.801Z,2.88
2019-02-04T10:00:41.264Z,3.09
2019-02-04T10:03:12.014Z,2.94
2019-02-04T10:05:42.476Z,3.18
2019-02-04T10:08:12.907Z,3.34
2019-02-04T10:10:43.315Z,3.49
2019-02-04T10:13:14.382Z,3.55
2019-02-04T10:15:45.840Z,3.58
2019-02-04T10:18:16.666Z,3.71
2019-02-04T10:20:47.219Z,3.69
2019-02-04T10:23:18.184Z,3.79
2019-02-04T10:25:48.620Z,3.80
2019-02-04T10:28:19.156Z,3.88
2019-02-04T10:30:49.666Z,3.78
2019-02-04T10:33:22.963Z,4.03
2019-02-04T10:35:53.464Z,3.93
2019-02-04T10:38:23.880Z,4.30
2019-02-04T10:40:54.318Z,4.85
2019-02-04T10:43:25.160Z,4.92
2019-02-04T10:45:55.801Z,5.13
2019-02-04T10:48:26.322Z,4.92
2019-02-04T10:50:57.273Z,4.79
2019-02-04T10:53:27.994Z,4.77
2019-02-04T10:55:58.843Z,5.20
2019-02-04T10:58:29.710Z,4.89
2019-02-04T11:01:00.186Z,5.58
2019-02-04T11:03:30.595Z,5.60
2019-02-04T11:06:01.437Z,5.38
2019-02-04T11:08:32.949Z,5.47
2019-02-04T11:11:03.692Z,5.66
2019-02-04T11:13:34.141Z,5.66
2019-02-04T11:16:04.865Z,5.84
2019-02-04T11:18:35.298Z,5.43
2019-02-04T11:21:06.148Z,5.64
2019-02-04T11:23:36.576Z,5.54
2019-02-04T11:26:07.243Z,5.55
2019-02-04T11:28:37.709Z,5.60
2019-02-04T11:31:11.659Z,5.87
2019-02-04T11:33:42.129Z,6.02
2019-02-04T11:36:12.890Z,6.18
2019-02-04T11:38:43.350Z,6.67
2019-02-04T11:41:14.272Z,6.89
2019-02-04T11:43:45.028Z,6.77
2019-02-04T11:46:15.739Z,6.88
2019-02-04T11:48:46.723Z,6.81
2019-02-04T11:51:17.761Z,6.51
2019-02-04T11:53:48.750Z,6.31
2019-02-04T11:56:19.408Z,7.05
2019-02-04T11:58:49.994Z,6.70
2019-02-04T12:01:20.762Z,6.97
2019-02-04T12:03:51.445Z,7.08
2019-02-04T12:06:22.580Z,7.28
2019-02-04T12:08:53.115Z,7.26
2019-02-04T12:11:24.966Z,7.28
2019-02-04T12:13:55.578Z,7.58
2019-02-04T12:16:26.370Z,7.36
2019-02-04T12:18:57.663Z,7.78
2019-02-04T12:21:28.565Z,8.12
2019-02-04T12:23:59.191Z,7.87
2019-02-04T12:26:29.801Z,7.99
2019-02-04T12:29:00.354Z,7.93
2019-02-04T12:31:31.141Z,7.76
2019-02-04T12:34:01.699Z,7.71
2019-02-04T12:36:32.281Z,7.65
2019-02-04T12:39:04.342Z,7.32
2019-02-04T12:41:35.172Z,7.23
2019-02-04T12:44:05.972Z,7.35
2019-02-04T12:46:36.894Z,7.24
2019-02-04T12:49:07.455Z,7.20
2019-02-04T12:51:38.382Z,7.18
2019-02-04T12:54:08.893Z,7.09
2019-02-04T12:56:39.606Z,7.02
2019-02-04T12:59:10.162Z,6.92
2019-02-04T13:01:40.778Z,7.06
2019-02-04T13:04:11.754Z,7.11
2019-02-04T13:06:42.931Z,7.08
2019-02-04T13:09:13.827Z,6.99
2019-02-04T13:11:44.399Z,7.10
2019-02-04T13:14:14.975Z,7.06
2019-02-04T13:16:45.460Z,6.85
2019-02-04T13:19:16.412Z,7.02
2019-02-04T13:21:47.336Z,7.07
2019-02-04T13:24:18.093Z,7.12
2019-02-04T13:26:48.748Z,6.94
2019-02-04T13:29:23.345Z,6.99
2019-02-04T13:31:54.275Z,6.88
2019-02-04T13:34:25.167Z,6.85
2019-02-04T13:36:55.828Z,6.83
2019-02-04T13:39:26.575Z,6.74
2019-02-04T13:41:57.137Z,6.81
2019-02-04T13:44:27.692Z,6.76
2019-02-04T13:46:58.303Z,6.69
2019-02-04T13:49:29.136Z,6.68
2019-02-04T13:51:59.769Z,6.64
2019-02-04T13:54:30.834Z,6.59
2019-02-04T13:57:03.592Z,6.62
2019-02-04T13:59:33.894Z,6.56
2019-02-04T14:02:04.732Z,6.56
2019-02-04T14:04:35.914Z,6.43
2019-02-04T14:07:06.557Z,6.48
2019-02-04T14:09:37.200Z,6.55
2019-02-04T14:12:07.972Z,6.59
2019-02-04T14:14:38.523Z,6.50
2019-02-04T14:17:08.994Z,6.45
2019-02-04T14:19:39.616Z,6.49
2019-02-04T14:22:10.472Z,6.46
2019-02-04T14:24:41.274Z,6.33
2019-02-04T14:27:11.926Z,6.27
2019-02-04T14:29:42.634Z,6.33
2019-02-04T14:32:13.205Z,6.32
2019-02-04T14:34:43.766Z,6.28
2019-02-04T14:37:14.388Z,6.24
2019-02-04T14:39:45.558Z,6.26
2019-02-04T14:42:19.017Z,6.16
2019-02-04T14:45:19.077Z,6.19
2019-02-04T14:48:24.350Z,6.10
2019-02-04T14:51:57.860Z,6.11
2019-02-04T14:55:13.023Z,6.07
2019-02-04T14:58:11.465Z,6.06
2019-02-04T15:01:47.975Z,6.05
2019-02-04T15:04:54.058Z,6.00
2019-02-04T15:08:17.581Z,5.97
2019-02-04T15:11:38.842Z,5.96
2019-02-04T15:15:10.384Z,5.89
2019-02-04T15:18:12.698Z,5.89
2019-02-04T15:21:38.837Z,5.86
2019-02-04T15:25:08.536Z,5.88
2019-02-04T15:28:31.425Z,5.84
2019-02-04T15:31:34.767Z,5.74
2019-02-04T15:34:43.613Z,5.74
2019-02-04T15:37:59.900Z,5.70
2019-02-04T15:41:05.972Z,5.73
2019-02-04T15:44:26.047Z,5.71
2019-02-04T15:47:50.768Z,5.70
2019-02-04T15:51:15.991Z,5.65
2019-02-04T15:53:47.076Z,5.62
2019-02-04T15:56:18.550Z,5.58
2019-02-04T15:58:49.210Z,5.61
2019-02-04T16:01:20.269Z,5.59
2019-02-04T16:03:51.239Z,5.66
2019-02-04T16:06:21.992Z,5.66
2019-02-04T16:08:53.134Z,5.64
2019-02-04T16:11:23.968Z,5.67
2019-02-04T16:13:55.062Z,5.61
2019-02-04T16:16:25.738Z,5.59
2019-02-04T16:18:56.371Z,5.59
2019-02-04T16:21:27.619Z,5.56
2019-02-04T16:23:58.238Z,5.54
2019-02-04T16:26:28.759Z,5.58
2019-02-04T16:28:59.259Z,5.54
2019-02-04T16:31:29.702Z,5.48
2019-02-04T16:34:00.138Z,5.50
2019-02-04T16:36:30.545Z,5.45
2019-02-04T16:39:01.009Z,5.49
2019-02-04T16:41:31.454Z,5.45
2019-02-04T16:44:01.867Z,5.41
2019-02-04T16:46:32.589Z,5.41
2019-02-04T16:49:04.537Z,5.40
2019-02-04T16:51:35.267Z,5.33
2019-02-04T16:54:06.171Z,5.30
2019-02-04T16:56:36.683Z,5.24
2019-02-04T16:59:07.232Z,5.16
2019-02-04T17:01:38.461Z,5.15
2019-02-04T17:04:08.968Z,5.15
2019-02-04T17:06:39.454Z,5.16
2019-02-04T17:09:12.671Z,5.20
2019-02-04T17:12:02.340Z,5.20
2019-02-04T17:14:33.051Z,5.21
2019-02-04T17:17:03.918Z,5.23
2019-02-04T17:19:34.345Z,5.27
2019-02-04T17:22:04.906Z,5.33
2019-02-04T17:24:35.985Z,5.34
2019-02-04T17:27:06.715Z,5.36
2019-02-04T17:29:37.115Z,5.42
2019-02-04T17:32:07.985Z,5.42
2019-02-04T17:34:39.028Z,5.41
2019-02-04T17:37:09.500Z,5.41
2019-02-04T17:39:40.199Z,5.47
2019-02-04T17:42:10.701Z,5.39
2019-02-04T17:44:41.239Z,5.39
2019-02-04T17:47:11.939Z,5.46
2019-02-04T17:49:42.428Z,5.53
2019-02-04T17:52:13.212Z,5.52
2019-02-04T17:54:43.687Z,5.53
2019-02-04T17:57:14.377Z,5.54
2019-02-04T17:59:44.949Z,5.47
2019-02-04T18:02:15.391Z,5.57
2019-02-04T18:04:46.019Z,5.47
2019-02-04T18:07:16.490Z,5.49
2019-02-04T18:09:46.969Z,5.46
2019-02-04T18:12:17.420Z,5.45
2019-02-04T18:14:47.968Z,5.48
2019-02-04T18:17:18.521Z,5.46
2019-02-04T18:19:49.386Z,5.45
2019-02-04T18:22:20.199Z,5.48
2019-02-04T18:24:50.924Z,5.45
2019-02-04T18:27:21.366Z,5.39
2019-02-04T18:29:52.180Z,5.31
2019-02-04T18:32:22.668Z,5.30
2019-02-04T18:34:53.399Z,5.29
2019-02-04T18:37:24.143Z,5.27
2019-02-04T18:39:54.502Z,5.24
2019-02-04T18:42:25.379Z,5.24
2019-02-04T18:44:55.865Z,5.22
2019-02-04T18:47:26.335Z,5.27
2019-02-04T18:49:57.025Z,5.20
2019-02-04T18:52:28.065Z,5.20
2019-02-04T18:54:58.640Z,5.18
2019-02-04T18:57:29.388Z,5.17
2019-02-04T18:59:59.883Z,5.11
2019-02-04T19:02:30.313Z,5.13
2019-02-04T19:05:00.888Z,5.14
2019-02-04T19:07:31.345Z,5.18
2019-02-04T19:10:02.002Z,5.13
2019-02-04T19:12:32.719Z,5.13
2019-02-04T19:15:03.173Z,5.15
2019-02-04T19:17:34.718Z,5.14
2019-02-04T19:20:06.112Z,5.14
2019-02-04T19:22:36.847Z,5.13
2019-02-04T19:25:09.376Z,5.15
2019-02-04T19:27:39.832Z,5.14
2019-02-04T19:30:18.326Z,5.12
2019-02-04T19:32:49.164Z,5.11
2019-02-04T19:35:20.097Z,5.13
2019-02-04T19:37:51.774Z,5.12
2019-02-04T19:40:22.238Z,5.12
2019-02-04T19:42:52.984Z,5.14
2019-02-04T19:45:23.824Z,5.11
2019-02-04T19:47:54.606Z,5.10
2019-02-04T19:50:29.077Z,5.14
2019-02-04T19:52:59.579Z,5.11
2019-02-04T19:55:30.971Z,5.12
2019-02-04T19:58:02.256Z,5.14
2019-02-04T20:00:33.322Z,5.10
2019-02-04T20:03:04.080Z,5.15
2019-02-04T20:05:34.834Z,5.16
2019-02-04T20:08:06.131Z,5.18
2019-02-04T20:10:36.928Z,5.19
2019-02-04T20:13:07.867Z,5.13
2019-02-04T20:15:38.348Z,5.16
2019-02-04T20:18:09.035Z,5.16
2019-02-04T20:20:42.403Z,5.17
2019-02-04T20:23:11.717Z,5.16
2019-02-04T20:25:42.188Z,5.16
2019-02-04T20:28:12.728Z,5.13
2019-02-04T20:30:46.135Z,5.13
2019-02-04T20:33:15.895Z,5.16
2019-02-04T20:35:46.650Z,5.18
2019-02-04T20:38:17.091Z,5.19
2019-02-04T20:40:47.965Z,5.18
2019-02-04T20:43:18.848Z,5.15
2019-02-04T20:45:49.327Z,5.11
2019-02-04T20:48:20.002Z,5.08
2019-02-04T20:50:50.594Z,5.13
2019-02-04T20:53:21.043Z,5.12
2019-02-04T20:55:51.496Z,5.16
2019-02-04T20:58:21.968Z,5.15
2019-02-04T21:00:52.382Z,5.13
2019-02-04T21:03:24.498Z,5.15
2019-02-04T21:05:55.197Z,5.13
2019-02-04T21:08:25.891Z,5.15
2019-02-04T21:10:56.608Z,5.16
2019-02-04T21:13:27.725Z,5.12
2019-02-04T21:15:58.743Z,5.15
2019-02-04T21:24:16.993Z,5.09
2019-02-04T21:26:48.368Z,5.07
2019-02-04T21:29:21.026Z,5.02
2019-02-04T21:31:51.516Z,5.01
2019-02-04T21:34:22.606Z,5.00
2019-02-04T21:36:56.234Z,4.96
2019-02-04T21:39:26.862Z,4.95
2019-02-04T21:41:58.200Z,4.93
2019-02-04T21:44:29.343Z,4.93
2019-02-04T21:47:00.123Z,4.97
2019-02-04T21:49:31.042Z,4.93
2019-02-04T21:52:29.151Z,4.91
2019-02-04T21:55:12.269Z,4.85
2019-02-04T21:57:43.317Z,4.84
2019-02-04T22:00:18.077Z,4.83
2019-02-04T22:02:48.972Z,4.81
2019-02-04T22:05:20.725Z,4.79
2019-02-04T22:07:51.178Z,4.79
2019-02-04T22:10:24.094Z,4.78
2019-02-04T22:12:54.600Z,4.77
2019-02-04T22:15:25.122Z,4.72
2019-02-04T22:17:55.820Z,4.71
2019-02-04T22:20:26.331Z,4.68
2019-02-04T22:22:57.203Z,4.63
2019-02-04T22:25:28.034Z,4.60
2019-02-04T22:31:26.724Z,4.61
2019-02-04T22:34:16.860Z,4.58
2019-02-04T22:37:06.562Z,4.59
2019-02-04T22:39:49.339Z,4.57
2019-02-04T22:42:19.883Z,4.55
2019-02-04T22:44:50.392Z,4.59
2019-02-04T22:47:20.856Z,4.55
2019-02-04T22:49:51.368Z,4.51
2019-02-04T22:52:21.862Z,4.54
2019-02-04T22:54:52.305Z,4.47
2019-02-04T22:57:22.881Z,4.44
2019-02-04T22:59:53.647Z,4.39
2019-02-04T23:02:24.181Z,4.33
2019-02-04T23:04:54.682Z,4.29
2019-02-04T23:07:25.416Z,4.21
2019-02-04T23:09:56.164Z,4.17
2019-02-04T23:12:26.875Z,4.03
2019-02-04T23:14:57.376Z,4.00
2019-02-04T23:17:27.825Z,3.99
2019-02-04T23:19:58.341Z,4.00
2019-02-04T23:22:28.806Z,3.97
2019-02-04T23:24:59.278Z,3.89
2019-02-04T23:27:29.922Z,3.84
2019-02-04T23:30:00.394Z,3.74
2019-02-04T23:32:31.312Z,3.73
2019-02-04T23:35:02.360Z,3.69
2019-02-04T23:37:32.993Z,3.71
2019-02-04T23:40:03.700Z,3.67
2019-02-04T23:42:34.254Z,3.65
2019-02-04T23:45:05.898Z,3.62
2019-02-04T23:47:36.376Z,3.64
2019-02-04T23:52:45.541Z,3.73
2019-02-04T23:55:16.415Z,3.71
2019-02-04T23:57:46.886Z,3.76
